createdAt,value
2022-11-01T00:02:37.081Z,100764.85
2022-11-01T00:17:40.031Z,100756.46
2022-11-01T00:32:43.441Z,100753.08
2022-11-01T00:47:47.885Z,100745.43
2022-11-01T01:02:50.798Z,100737.14
2022-11-01T01:17:53.789Z,100722.63
2022-11-01T01:32:57.003Z,100715.26
2022-11-01T01:48:23.674Z,100703.42
2022-11-01T02:03:37.882Z,100691.46
2022-11-01T02:19:11.336Z,100680.22
2022-11-01T02:34:29.803Z,100673.42
2022-11-01T02:49:37.454Z,100670.53
2022-11-01T03:04:40.641Z,100660.46
2022-11-01T03:20:00.901Z,100664.71
2022-11-01T03:35:06.038Z,100660.06
2022-11-01T03:50:29.335Z,100653.23
2022-11-01T04:05:34.131Z,100637.75
2022-11-01T04:20:38.154Z,100640.44
2022-11-01T04:35:41.430Z,100650.84
2022-11-01T04:50:45.746Z,100650.89
2022-11-01T05:05:48.811Z,100624.81
2022-11-01T05:20:51.949Z,100619.30
2022-11-01T05:35:55.197Z,100587.82
2022-11-01T05:50:58.377Z,100584.58
2022-11-01T06:06:01.438Z,100578.04
2022-11-01T06:21:04.657Z,100588.29
2022-11-01T06:36:07.996Z,100589.62
2022-11-01T06:51:11.041Z,100622.39
2022-11-01T07:06:14.797Z,100620.36
2022-11-01T07:21:18.691Z,100611.40
2022-11-01T07:36:22.344Z,100592.91
2022-11-01T07:51:25.856Z,100549.91
2022-11-01T08:06:28.934Z,100527.73
2022-11-01T08:21:32.297Z,100526.34
2022-11-01T08:36:35.485Z,100515.52
2022-11-01T08:51:39.737Z,100491.27
2022-11-01T09:06:43.486Z,100498.21
2022-11-01T09:21:47.188Z,100476.29
2022-11-01T09:36:50.289Z,100451.71
2022-11-01T09:51:55.099Z,100461.48
2022-11-01T10:07:05.286Z,100451.14
2022-11-01T10:22:39.978Z,100453.70
2022-11-01T10:38:04.353Z,100498.45
2022-11-01T10:53:19.882Z,100513.91
2022-11-01T11:08:25.165Z,100514.84
2022-11-01T11:23:33.305Z,100508.19
2022-11-01T11:38:42.180Z,100493.73
2022-11-01T11:53:45.742Z,100478.50
2022-11-01T12:08:52.205Z,100475.98
2022-11-01T12:24:03.715Z,100449.42
2022-11-01T12:39:39.302Z,100474.20
2022-11-01T12:54:50.884Z,100469.54
2022-11-01T13:10:33.780Z,100472.73
2022-11-01T13:25:46.740Z,100478.76
2022-11-01T13:40:55.431Z,100484.22
2022-11-01T13:56:02.709Z,100479.89
2022-11-01T14:11:07.715Z,100478.02
2022-11-01T14:26:23.735Z,100479.84
2022-11-01T14:41:32.719Z,100494.65
2022-11-01T14:56:40.858Z,100480.70
2022-11-01T15:11:45.388Z,100451.91
2022-11-01T15:26:48.680Z,100459.92
2022-11-01T15:41:54.770Z,100487.44
2022-11-01T15:57:02.805Z,100478.56
2022-11-01T16:12:24.329Z,100471.66
2022-11-01T16:27:28.906Z,100473.33
2022-11-01T16:42:33.420Z,100476.70
2022-11-01T16:57:39.761Z,100477.83
2022-11-01T17:12:43.312Z,100485.75
2022-11-01T17:27:51.327Z,100484.67
2022-11-01T17:42:55.371Z,100480.04
2022-11-01T17:58:15.635Z,100482.98
2022-11-01T18:13:25.678Z,100498.44
2022-11-01T18:28:32.959Z,100504.16
2022-11-01T18:43:40.533Z,100499.38
2022-11-01T18:58:44.374Z,100498.34
2022-11-01T19:13:51.321Z,100494.56
2022-11-01T19:28:55.883Z,100489.53
2022-11-01T19:44:12.243Z,100492.06
2022-11-01T19:59:16.075Z,100491.61
2022-11-01T20:14:21.040Z,100500.85
2022-11-01T20:36:15.947Z,100506.48
2022-11-01T20:51:19.254Z,100508.44
2022-11-01T21:06:25.149Z,100514.25
2022-11-01T21:21:45.370Z,100513.08
2022-11-01T21:36:53.763Z,100513.13
2022-11-01T21:52:00.718Z,100503.52
2022-11-01T22:07:06.411Z,100508.98
2022-11-01T22:22:09.782Z,100516.77
2022-11-01T22:37:13.396Z,100517.18
2022-11-01T22:52:32.459Z,100521.47
2022-11-01T23:07:38.237Z,100519.56
2022-11-01T23:22:41.629Z,100528.47
2022-11-01T23:37:45.264Z,100529.20
2022-11-01T23:53:06.388Z,100526.83
